Situação meteorológica que não inspira cuidado.   -   Não há avisos

Nearby METAR Reports

 

LEZL - Sevilla, Spain
Distance from station: ENE 8km
Actualizado: 19/06/2018 21:30
Céu limpo
Céu limpo
 Vento de SW
Vento: SW 15 km/h
Temperatura: 31°C
Ponto de Orvalho: 13°C
Humidade: 33%
Barómetro: 1014 hPa
Resumo: Céu limpo
Visibility: greater than 10 km
2018/06/19 19:30 LEZL 191930Z 22008KT 170V260 CAVOK 31/13 Q1014 NOSIG
LEMO - Morón, Spain
Distance from station: SE 43km
Actualizado: 19/06/2018 22:00
Céu limpo
Céu limpo
 Vento de WSW
Vento: WSW 9 km/h
Temperatura: 27°C
Ponto de Orvalho: 11°C
Humidade: 37%
Barómetro: 1015 hPa
Resumo: Céu limpo
Visibility: greater than 10 km
2018/06/19 20:00 LEMO 192000Z 24005KT 160V270 CAVOK 27/11 Q1015 NOSIG
LEJR - Jeréz, Spain
Distance from station: S 71km
Actualizado: 19/06/2018 22:00
Céu limpo
Céu limpo
 Vento de E
Vento: E 15 km/h
Temperatura: 26°C
Ponto de Orvalho: 11°C
Humidade: 39%
Barómetro: 1014 hPa
Resumo: Céu limpo
Visibility: greater than 10 km
2018/06/19 20:00 LEJR 192000Z 10008KT 060V140 CAVOK 26/11 Q1014
 
LERT - Rota, Spain
Distance from station: SSW 89km
Actualizado: 19/06/2018 22:00
Céu limpo
Céu limpo
 Vento de ESE
Vento: ESE 31 km/h, Rajada: 54 km/h
Temperatura: 26°C
Ponto de Orvalho: 12°C
Humidade: 42%
Barómetro: 1014 hPa
Resumo: Céu limpo
Visibility: greater than 10 km
2018/06/19 20:00 LERT 192000Z 12017G29KT 080V150 CAVOK 26/12 Q1014 NOSIG
LEMG - Málaga, Spain
Distance from station: ESE 157km
Actualizado: 19/06/2018 22:00
Céu limpo
Céu limpo
 Vento de E
Vento: E 6 km/h
Temperatura: 22°C
Ponto de Orvalho: 16°C
Humidade: 69%
Barómetro: 1019 hPa
Resumo: Céu limpo
Visibility: greater than 10 km
2018/06/19 20:00 LEMG 192000Z 10003KT CAVOK 22/16 Q1019 NOSIG
LEBA - Córdoba, Spain
Distance from station: ENE 115km
Actualizado: 19/06/2018 22:00
Céu limpo
Céu limpo
 Vento de W
Vento: W 4 km/h
Temperatura: 28°C
Ponto de Orvalho: 10°C
Humidade: 32%
Barómetro: 1015 hPa
Clouds: Céu limpo
Visibility: 10 km
2018/06/19 20:00 LEBA 192000Z AUTO 26002KT 9999 NCD 28/10 Q1015
 
LEGR - Granada, Spain
Distance from station: E 198km
Actualizado: 19/06/2018 22:00
Céu limpo
Céu limpo
 Vento de varies
Vento: varies 4 km/h
Temperatura: 25°C
Ponto de Orvalho: 11°C
Humidade: 42%
Barómetro: 1018 hPa
Resumo: Céu limpo
Visibility: greater than 10 km
2018/06/19 20:00 LEGR 192000Z VRB02KT CAVOK 25/11 Q1018
LEAM - Almería, Spain
Distance from station: E 326km
Actualizado: 19/06/2018 22:00
Céu limpo
Céu limpo
 Vento de ENE
Vento: ENE 26 km/h
Temperatura: 25°C
Ponto de Orvalho: 14°C
Humidade: 51%
Barómetro: 1018 hPa
Resumo: Céu limpo
Visibility: greater than 10 km
2018/06/19 20:00 LEAM 192000Z 07014KT CAVOK 25/14 Q1018
LEMD - Madrid/Barajas, Spain
Distance from station: NNE 402km
Actualizado: 19/06/2018 22:00
Céu limpo
Céu limpo
 Vento de varies
Vento: varies 4 km/h
Temperatura: 30°C
Ponto de Orvalho: 12°C
Humidade: 33%
Barómetro: 1018 hPa
Resumo: Céu limpo
Visibility: greater than 10 km
2018/06/19 20:00 LEMD 192000Z VRB02KT CAVOK 30/12 Q1018 NOSIG
 
LEVD - Valladolid, Spain
Distance from station: N 492km
Actualizado: 19/06/2018 21:30
Céu limpo
Céu limpo
 Vento de SW
Vento: SW 4 km/h
Temperatura: 25°C
Ponto de Orvalho: 14°C
Humidade: 51%
Barómetro: 1020 hPa
Resumo: Céu limpo
Visibility: greater than 10 km
2018/06/19 19:30 LEVD 191930Z 22002KT CAVOK 25/14 Q1020
LEBL - Barcelona, Spain
Distance from station: NE 816km
Actualizado: 19/06/2018 22:00
Céu limpo
Céu limpo
 Vento de SSW
Vento: SSW 15 km/h
Temperatura: 23°C
Ponto de Orvalho: 16°C
Humidade: 65%
Barómetro: 1019 hPa
Resumo: Céu limpo
Visibility: greater than 10 km
2018/06/19 20:00 LEBL 192000Z 21008KT CAVOK 23/16 Q1019 NOSIG
LEVC - Valencia, Spain
Distance from station: ENE 535km
Actualizado: 19/06/2018 22:00
Céu limpo
Céu limpo
 Vento de ESE
Vento: ESE 9 km/h
Temperatura: 24°C
Ponto de Orvalho: 16°C
Humidade: 61%
Barómetro: 1019 hPa
Resumo: Céu limpo
Visibility: greater than 10 km
2018/06/19 20:00 LEVC 192000Z 11005KT 080V140 CAVOK 24/16 Q1019 NOSIG